Time;durP1;ratioP1;P1;durP2;ratioP2;P2;SDS_P1;SDS_P2;PMS_P1;PMS_P2;Temp;Humidity;BMP_temperature;BMP_pressure;BME280_temperature;BME280_humidity;BME280_pressure;Samples;Min_cycle;Max_cycle;Signal;HPM_P1;HPM_P2
2022/01/19 00:00:13;;;;;;;55.33;27.58;;;4.60;99.90;;;;;;5080217;28;20043;-59
2022/01/19 00:02:39;;;;;;;58.10;26.20;;;4.60;99.90;;;;;;5079240;28;20441;-59
2022/01/19 00:05:07;;;;;;;60.33;26.50;;;4.70;99.90;;;;;;5079737;28;20040;-60
2022/01/19 00:07:33;;;;;;;62.47;27.50;;;4.60;99.90;;;;;;5079225;28;20584;-60
2022/01/19 00:10:03;;;;;;;55.58;27.08;;;4.70;99.90;;;;;;5079189;28;20484;-58
2022/01/19 00:12:30;;;;;;;56.67;25.80;;;4.60;99.90;;;;;;5079430;28;20048;-59
2022/01/19 00:14:56;;;;;;;60.88;27.73;;;4.60;99.90;;;;;;5044373;28;20041;-59
2022/01/19 00:17:21;;;;;;;54.40;25.05;;;4.60;99.90;;;;;;5079653;28;20104;-59
2022/01/19 00:19:47;;;;;;;55.33;25.75;;;4.60;99.90;;;;;;5078540;28;20083;-58
2022/01/19 00:22:13;;;;;;;54.08;23.85;;;4.60;99.90;;;;;;5079267;28;20056;-60
2022/01/19 00:24:40;;;;;;;53.30;24.50;;;4.60;99.90;;;;;;5078945;28;20075;-59
2022/01/19 00:27:05;;;;;;;53.55;25.05;;;4.60;99.90;;;;;;5078901;28;20049;-59
2022/01/19 00:29:31;;;;;;;50.05;23.35;;;4.60;99.90;;;;;;5078734;28;20057;-60
2022/01/19 00:31:57;;;;;;;47.90;23.30;;;4.50;99.90;;;;;;5061142;28;20053;-59
2022/01/19 00:34:22;;;;;;;50.72;23.20;;;4.50;99.90;;;;;;5061307;28;20086;-59
2022/01/19 00:36:48;;;;;;;52.38;23.88;;;4.50;99.90;;;;;;5060497;28;20076;-59
2022/01/19 00:39:14;;;;;;;55.60;26.80;;;4.60;99.90;;;;;;5061083;28;20078;-59
2022/01/19 00:41:39;;;;;;;55.08;25.30;;;4.50;99.90;;;;;;5060430;28;20072;-59
2022/01/19 00:44:05;;;;;;;56.17;25.75;;;4.60;99.90;;;;;;5078695;28;20051;-60
2022/01/19 00:46:31;;;;;;;54.78;23.65;;;4.50;99.90;;;;;;5078452;28;20129;-59
2022/01/19 00:48:56;;;;;;;61.03;27.48;;;4.60;99.90;;;;;;5078793;28;20048;-60
2022/01/19 00:51:22;;;;;;;59.72;27.05;;;4.60;99.90;;;;;;5079104;28;20509;-59
2022/01/19 00:53:48;;;;;;;56.05;27.33;;;4.80;99.90;;;;;;5060359;28;20071;-60
2022/01/19 00:56:14;;;;;;;60.63;27.08;;;4.50;99.90;;;;;;5044237;28;20074;-60
2022/01/19 00:58:39;;;;;;;60.30;26.42;;;4.50;99.90;;;;;;5078706;28;20056;-59
2022/01/19 01:01:05;;;;;;;54.55;25.92;;;4.40;99.90;;;;;;5078520;28;20052;-60
2022/01/19 01:03:31;;;;;;;56.80;25.80;;;4.40;99.90;;;;;;5078539;28;20044;-59
2022/01/19 01:05:57;;;;;;;53.25;24.70;;;4.50;99.90;;;;;;5078253;28;20120;-60
2022/01/19 01:08:22;;;;;;;57.17;27.10;;;4.60;99.90;;;;;;5079026;28;20106;-60
2022/01/19 01:10:49;;;;;;;60.00;29.25;;;4.50;99.90;;;;;;5078072;28;20051;-60
2022/01/19 01:16:04;;;;;;;67.13;26.55;;;4.40;99.90;;;;;;5098691;28;20044;-60
2022/01/19 01:18:31;;;;;;;57.63;25.13;;;4.40;99.90;;;;;;5098535;28;20119;-59
2022/01/19 01:20:59;;;;;;;61.00;26.63;;;4.40;99.90;;;;;;5063771;28;20073;-58
2022/01/19 01:23:27;;;;;;;58.65;25.13;;;4.50;99.90;;;;;;5098436;28;20056;-59
2022/01/19 01:25:54;;;;;;;62.78;27.77;;;4.40;99.90;;;;;;5099146;28;20044;-60
2022/01/19 01:28:20;;;;;;;63.15;26.98;;;4.40;99.90;;;;;;5069905;28;20063;-59
2022/01/19 01:30:47;;;;;;;68.63;28.02;;;4.40;99.90;;;;;;5078309;28;20070;-59
2022/01/19 01:33:13;;;;;;;63.60;26.80;;;4.40;99.90;;;;;;5078333;28;20053;-60
2022/01/19 01:35:40;;;;;;;63.25;27.10;;;4.50;99.90;;;;;;5060098;28;20047;-60
2022/01/19 01:38:06;;;;;;;73.88;29.63;;;4.30;99.90;;;;;;5060728;28;20390;-60
2022/01/19 01:40:34;;;;;;;62.45;27.23;;;4.40;99.90;;;;;;5078164;28;20486;-59
2022/01/19 01:43:01;;;;;;;67.45;30.55;;;4.40;99.90;;;;;;5079074;28;20120;-60
2022/01/19 01:45:30;;;;;;;65.93;27.83;;;4.30;99.90;;;;;;5078167;28;20049;-59
2022/01/19 01:53:28;;;;;;;71.90;29.77;;;4.30;99.90;;;;;;5062521;28;20510;-60
2022/01/19 01:55:59;;;;;;;68.05;29.40;;;4.30;99.90;;;;;;5078611;28;20048;-59
2022/01/19 01:58:26;;;;;;;71.68;31.60;;;4.30;99.90;;;;;;5059570;28;20048;-60
2022/01/19 02:00:53;;;;;;;63.67;30.23;;;4.20;99.90;;;;;;5078061;28;20484;-59
2022/01/19 02:03:20;;;;;;;65.43;28.60;;;4.30;99.90;;;;;;5059869;28;20093;-59
2022/01/19 02:06:07;;;;;;;62.97;28.20;;;4.20;99.90;;;;;;5077762;28;20045;-59
2022/01/19 02:08:43;;;;;;;68.32;30.25;;;4.30;99.90;;;;;;5081034;28;20115;-59
2022/01/19 02:22:04;;;;;;;58.25;26.52;;;4.20;99.90;;;;;;5082026;28;20056;-59
2022/01/19 02:24:41;;;;;;;68.35;27.23;;;4.10;99.90;;;;;;5081506;28;20074;-59
2022/01/19 02:28:59;;;;;;;59.50;26.20;;;4.20;99.90;;;;;;5063314;28;20048;-59
2022/01/19 02:40:52;;;;;;;63.30;28.70;;;4.10;99.90;;;;;;5037531;28;20060;-58
2022/01/19 02:43:23;;;;;;;63.10;28.73;;;4.70;99.90;;;;;;5061306;28;20040;-60
2022/01/19 02:51:17;;;;;;;64.63;27.08;;;4.10;99.90;;;;;;5045935;28;20063;-60
2022/01/19 02:53:43;;;;;;;63.50;28.73;;;4.10;99.90;;;;;;5060258;28;20037;-59
2022/01/19 02:56:15;;;;;;;73.55;32.08;;;4.20;99.90;;;;;;5061148;28;20394;-60
2022/01/19 02:58:55;;;;;;;70.60;31.55;;;4.10;99.90;;;;;;5060687;28;20041;-60
2022/01/19 03:09:42;;;;;;;70.50;31.80;;;4.20;99.90;;;;;;5048310;28;20053;-59
2022/01/19 03:12:09;;;;;;;82.53;31.88;;;4.20;99.90;;;;;;5050087;28;20055;-58
2022/01/19 03:14:35;;;;;;;74.72;33.13;;;4.30;99.90;;;;;;5080458;28;20071;-59
2022/01/19 03:17:01;;;;;;;74.10;31.63;;;4.30;99.90;;;;;;5080997;28;20044;-59
2022/01/19 03:19:29;;;;;;;70.95;31.13;;;4.30;99.90;;;;;;5079682;28;20063;-59
2022/01/19 03:21:54;;;;;;;67.18;31.75;;;4.30;99.90;;;;;;5080681;28;20051;-59
2022/01/19 03:24:20;;;;;;;73.88;31.40;;;4.30;99.90;;;;;;5080370;28;20115;-59
2022/01/19 03:26:46;;;;;;;75.07;33.42;;;4.30;99.90;;;;;;5080241;28;20078;-59
2022/01/19 03:29:12;;;;;;;73.05;33.72;;;4.40;99.90;;;;;;5061744;28;20055;-59
2022/01/19 03:31:38;;;;;;;83.10;33.25;;;4.30;99.90;;;;;;5080293;28;20045;-59
2022/01/19 03:34:05;;;;;;;84.53;32.25;;;4.40;99.90;;;;;;5080448;28;20041;-59
2022/01/19 03:36:31;;;;;;;85.38;34.42;;;4.40;99.90;;;;;;5079790;28;20511;-59
2022/01/19 03:38:57;;;;;;;78.75;33.65;;;4.30;99.90;;;;;;5045917;28;20044;-59
2022/01/19 03:41:22;;;;;;;87.75;33.60;;;4.30;99.90;;;;;;5079729;28;20082;-59
2022/01/19 03:43:48;;;;;;;94.82;32.80;;;4.40;99.90;;;;;;5079736;28;20123;-59
2022/01/19 03:46:15;;;;;;;74.97;30.40;;;4.40;99.90;;;;;;5061758;28;20120;-59
2022/01/19 03:51:09;;;;;;;84.57;29.50;;;4.30;99.90;;;;;;5080053;28;20098;-59
2022/01/19 03:53:35;;;;;;;78.13;28.92;;;4.40;99.90;;;;;;5079173;28;20037;-59
2022/01/19 03:56:01;;;;;;;75.80;29.40;;;4.30;99.90;;;;;;5078592;28;20058;-59
2022/01/19 03:58:27;;;;;;;75.47;26.83;;;4.30;99.90;;;;;;5061498;28;20040;-59
2022/01/19 04:00:55;;;;;;;82.50;28.67;;;4.20;99.90;;;;;;5061347;28;20037;-59
2022/01/19 04:03:31;;;;;;;75.13;29.88;;;4.30;99.90;;;;;;5061503;28;20059;-59
2022/01/19 04:06:06;;;;;;;75.60;28.80;;;4.20;99.90;;;;;;5062775;28;20040;-59
2022/01/19 04:08:32;;;;;;;70.85;27.90;;;4.30;99.90;;;;;;5063573;28;20044;-59
2022/01/19 04:10:57;;;;;;;78.25;30.60;;;4.40;99.90;;;;;;5078990;28;20066;-59
2022/01/19 04:15:49;;;;;;;74.60;28.05;;;4.30;99.90;;;;;;5060930;28;20124;-59
2022/01/19 04:18:15;;;;;;;76.50;27.33;;;4.30;99.90;;;;;;5078807;28;20053;-59
2022/01/19 04:20:43;;;;;;;76.07;27.20;;;4.30;99.90;;;;;;5061125;28;20096;-59
2022/01/19 04:23:09;;;;;;;67.78;27.50;;;4.30;99.90;;;;;;5078822;28;20096;-60
2022/01/19 04:25:35;;;;;;;80.38;28.70;;;4.30;99.90;;;;;;5079526;28;20047;-60
2022/01/19 04:28:06;;;;;;;71.65;29.05;;;4.30;99.90;;;;;;5078885;28;20115;-60
2022/01/19 04:30:35;;;;;;;81.50;29.75;;;4.30;99.90;;;;;;5092458;28;20076;-60
2022/01/19 04:33:06;;;;;;;74.38;26.73;;;4.30;99.90;;;;;;5099170;28;20048;-59
2022/01/19 04:35:43;;;;;;;68.68;25.88;;;4.30;99.90;;;;;;5099033;28;20044;-59
2022/01/19 04:44:13;;;;;;;63.05;24.77;;;4.30;99.90;;;;;;5099148;28;20051;-60
2022/01/19 05:05:23;;;;;;;63.67;24.17;;;4.20;99.90;;;;;;5098851;28;20156;-60
2022/01/19 05:15:44;;;;;;;62.35;23.70;;;4.20;99.90;;;;;;5098286;28;20078;-60
2022/01/19 05:18:10;;;;;;;56.72;23.20;;;4.20;99.90;;;;;;5098364;28;20048;-60
2022/01/19 05:20:35;;;;;;;59.75;23.90;;;4.20;99.90;;;;;;5098474;28;20512;-60
2022/01/19 05:23:01;;;;;;;57.25;23.38;;;4.20;99.90;;;;;;5098659;28;20044;-60
2022/01/19 05:25:27;;;;;;;58.85;22.13;;;4.10;99.90;;;;;;5099022;28;20100;-59
2022/01/19 05:27:52;;;;;;;61.50;21.70;;;4.20;99.90;;;;;;5079994;28;20055;-59
2022/01/19 05:30:18;;;;;;;56.17;22.85;;;4.10;99.90;;;;;;5087157;28;20112;-60
2022/01/19 05:32:47;;;;;;;55.33;22.35;;;4.10;99.90;;;;;;5078070;28;20079;-60
2022/01/19 05:35:14;;;;;;;54.15;22.25;;;4.10;99.90;;;;;;5078056;28;20079;-60
2022/01/19 05:37:40;;;;;;;56.88;23.42;;;4.20;99.90;;;;;;5078133;28;20037;-60
2022/01/19 05:40:08;;;;;;;54.92;22.90;;;4.30;99.90;;;;;;5078206;28;20090;-60
2022/01/19 05:42:34;;;;;;;61.28;25.17;;;4.30;99.90;;;;;;5079956;28;20033;-59
2022/01/19 05:45:01;;;;;;;54.78;21.60;;;4.10;99.90;;;;;;5063899;28;20110;-58
2022/01/19 05:47:27;;;;;;;55.17;23.45;;;4.10;99.90;;;;;;5082565;28;20047;-59
2022/01/19 05:49:52;;;;;;;48.03;19.90;;;4.10;99.90;;;;;;5081509;28;20052;-59
2022/01/19 05:52:19;;;;;;;59.03;23.02;;;4.10;99.90;;;;;;5082168;28;20052;-59
2022/01/19 05:54:45;;;;;;;55.72;22.52;;;4.20;99.90;;;;;;5081643;28;20055;-59
2022/01/19 05:57:11;;;;;;;51.85;21.75;;;4.20;99.90;;;;;;5081707;28;20063;-60
2022/01/19 05:59:37;;;;;;;51.28;23.75;;;4.20;99.90;;;;;;5082383;28;20053;-59
2022/01/19 06:02:03;;;;;;;46.53;20.27;;;4.10;99.90;;;;;;5063802;28;20096;-59
2022/01/19 06:04:29;;;;;;;55.33;22.90;;;4.10;99.90;;;;;;5082542;28;20053;-59
2022/01/19 06:06:56;;;;;;;51.70;21.50;;;4.10;99.90;;;;;;5081591;28;20048;-59
2022/01/19 06:12:07;;;;;;;48.35;20.95;;;4.10;99.90;;;;;;5081359;28;20620;-59
2022/01/19 06:14:34;;;;;;;53.10;22.58;;;4.10;99.90;;;;;;5081308;28;20099;-59
2022/01/19 06:17:01;;;;;;;52.03;22.05;;;4.10;99.90;;;;;;5047368;28;20044;-59
2022/01/19 06:19:27;;;;;;;55.58;22.58;;;4.00;99.90;;;;;;5080900;28;20153;-59
2022/01/19 06:21:53;;;;;;;50.00;20.92;;;4.10;99.90;;;;;;5063752;28;20074;-59
2022/01/19 06:24:19;;;;;;;44.05;20.30;;;4.10;99.90;;;;;;5061576;28;20041;-59
2022/01/19 06:26:45;;;;;;;47.17;20.98;;;4.10;99.90;;;;;;5078010;28;20057;-59
2022/01/19 06:29:11;;;;;;;54.83;22.45;;;4.20;99.90;;;;;;5077893;28;20041;-59
2022/01/19 06:31:36;;;;;;;46.03;21.60;;;4.20;99.90;;;;;;5077982;28;20044;-60
2022/01/19 06:34:02;;;;;;;46.70;21.27;;;4.10;99.90;;;;;;5078587;28;20050;-59
2022/01/19 06:36:28;;;;;;;49.70;22.50;;;4.20;99.90;;;;;;5077232;28;20037;-59
2022/01/19 06:38:54;;;;;;;51.08;22.15;;;4.00;99.90;;;;;;5060335;28;20115;-58
2022/01/19 06:41:19;;;;;;;45.85;21.35;;;4.10;99.90;;;;;;5077699;28;20064;-60
2022/01/19 06:43:45;;;;;;;54.85;22.88;;;4.10;99.90;;;;;;5077710;28;20099;-58
2022/01/19 06:46:11;;;;;;;50.00;22.00;;;4.10;99.90;;;;;;5077634;28;20044;-62
2022/01/19 06:48:37;;;;;;;47.42;21.65;;;4.10;99.90;;;;;;5077071;28;20060;-59
2022/01/19 06:51:03;;;;;;;50.92;20.60;;;4.00;99.90;;;;;;5077537;28;20070;-62
2022/01/19 06:53:29;;;;;;;54.10;22.77;;;4.00;99.90;;;;;;5058895;28;20614;-59
2022/01/19 06:55:57;;;;;;;52.58;22.85;;;4.00;99.90;;;;;;5078069;28;20456;-60
2022/01/19 06:58:24;;;;;;;49.83;21.50;;;4.00;99.90;;;;;;5077378;28;20048;-60
2022/01/19 07:00:50;;;;;;;48.67;20.42;;;4.10;99.90;;;;;;5077008;28;20052;-60
2022/01/19 07:03:15;;;;;;;50.03;22.17;;;4.10;99.90;;;;;;5059543;28;20052;-59
2022/01/19 07:05:41;;;;;;;57.13;22.75;;;4.10;99.90;;;;;;5077112;28;20580;-60
2022/01/19 07:08:07;;;;;;;51.17;22.88;;;4.10;99.90;;;;;;5077823;28;20049;-60
2022/01/19 07:10:33;;;;;;;51.75;24.55;;;4.20;99.90;;;;;;5059126;28;20049;-59
2022/01/19 07:13:00;;;;;;;46.40;21.85;;;4.10;99.90;;;;;;5091820;28;20052;-59
2022/01/19 07:15:25;;;;;;;49.70;24.35;;;4.10;99.90;;;;;;5096894;28;20059;-60
2022/01/19 07:17:51;;;;;;;44.97;22.13;;;4.10;99.90;;;;;;5097166;28;20044;-59
2022/01/19 07:20:17;;;;;;;49.90;22.83;;;4.10;99.90;;;;;;5096887;28;20286;-59
2022/01/19 07:22:42;;;;;;;46.00;22.50;;;4.20;99.90;;;;;;5097089;28;20103;-59
2022/01/19 07:25:09;;;;;;;52.97;22.35;;;4.10;99.90;;;;;;5096848;28;20054;-59
2022/01/19 07:27:34;;;;;;;46.92;22.42;;;4.10;99.90;;;;;;5092796;28;20518;-58
2022/01/19 07:30:01;;;;;;;51.28;22.30;;;4.10;99.90;;;;;;5062983;28;20117;-59
2022/01/19 07:32:30;;;;;;;53.40;24.80;;;4.20;99.90;;;;;;5092254;28;20048;-59
2022/01/19 07:34:56;;;;;;;51.75;24.30;;;4.10;99.90;;;;;;5075637;28;20056;-59
2022/01/19 07:37:22;;;;;;;51.85;22.20;;;4.10;99.90;;;;;;5076486;28;20046;-59
2022/01/19 07:39:48;;;;;;;49.40;23.67;;;4.20;99.90;;;;;;5075256;28;20050;-59
2022/01/19 07:42:13;;;;;;;54.22;22.58;;;4.10;99.90;;;;;;5075077;28;20088;-60
2022/01/19 07:44:39;;;;;;;50.78;24.10;;;4.20;99.90;;;;;;5076548;28;20055;-59
2022/01/19 07:47:06;;;;;;;53.08;23.95;;;4.20;99.90;;;;;;5077244;28;20036;-60
2022/01/19 07:49:32;;;;;;;60.70;24.88;;;4.20;99.90;;;;;;5075722;28;20051;-59
2022/01/19 07:51:58;;;;;;;55.83;25.00;;;4.30;99.90;;;;;;5076639;28;20048;-59
2022/01/19 07:54:24;;;;;;;52.72;24.27;;;4.20;99.90;;;;;;5076345;28;20124;-59
2022/01/19 07:56:50;;;;;;;52.30;24.63;;;4.20;99.90;;;;;;5074534;28;20146;-59
2022/01/19 07:59:17;;;;;;;60.53;25.60;;;4.30;99.90;;;;;;5076551;28;20071;-60
2022/01/19 08:01:43;;;;;;;49.17;23.92;;;4.30;99.90;;;;;;5075919;28;20468;-60
2022/01/19 08:04:09;;;;;;;57.35;27.33;;;4.30;99.90;;;;;;5076568;28;20047;-60
2022/01/19 08:06:36;;;;;;;60.63;26.40;;;4.20;99.90;;;;;;5075206;28;20083;-59
2022/01/19 08:09:03;;;;;;;52.08;24.85;;;4.20;99.90;;;;;;5076362;28;20609;-60
2022/01/19 08:11:28;;;;;;;54.70;25.85;;;4.20;99.90;;;;;;5076376;28;20040;-60
2022/01/19 08:13:54;;;;;;;62.08;26.83;;;4.20;99.90;;;;;;5095845;28;20090;-60
2022/01/19 08:16:21;;;;;;;57.17;26.77;;;4.20;99.90;;;;;;5096477;28;20067;-60
2022/01/19 08:18:47;;;;;;;58.08;24.58;;;4.30;99.90;;;;;;5094830;28;20044;-60
2022/01/19 08:21:12;;;;;;;55.55;25.15;;;4.20;99.90;;;;;;5096739;28;20048;-61
2022/01/19 08:23:39;;;;;;;61.63;26.30;;;4.40;99.90;;;;;;5094703;28;20127;-60
2022/01/19 08:26:06;;;;;;;54.03;26.63;;;4.40;99.90;;;;;;5070547;28;20049;-60
2022/01/19 08:28:32;;;;;;;51.83;24.73;;;4.40;99.90;;;;;;5067593;28;20053;-59
2022/01/19 08:30:58;;;;;;;54.20;25.17;;;4.40;99.90;;;;;;5074267;28;20098;-60
2022/01/19 08:33:24;;;;;;;51.70;26.45;;;4.40;99.90;;;;;;5075448;28;20040;-59
2022/01/19 08:35:51;;;;;;;56.35;26.30;;;4.50;99.90;;;;;;5075249;28;20041;-59
2022/01/19 08:38:17;;;;;;;58.08;25.23;;;4.50;99.90;;;;;;5074754;28;20052;-59
2022/01/19 08:40:43;;;;;;;61.42;28.48;;;4.50;99.90;;;;;;5075696;28;20045;-59
2022/01/19 08:43:09;;;;;;;58.30;27.63;;;4.50;99.90;;;;;;5076046;28;20047;-59
2022/01/19 08:45:35;;;;;;;58.47;29.17;;;4.50;99.90;;;;;;5075378;28;20044;-60
2022/01/19 08:48:02;;;;;;;54.08;25.83;;;4.50;99.90;;;;;;5075286;28;20091;-59
2022/01/19 08:50:29;;;;;;;58.08;28.20;;;4.60;99.90;;;;;;5075387;28;20056;-58
2022/01/19 08:52:54;;;;;;;54.63;27.80;;;4.60;99.90;;;;;;5075448;28;20128;-59
2022/01/19 08:55:20;;;;;;;56.33;27.58;;;4.60;99.90;;;;;;5075911;28;20087;-58
2022/01/19 08:57:46;;;;;;;52.72;27.45;;;4.70;99.90;;;;;;5075517;28;20044;-59
2022/01/19 09:00:15;;;;;;;64.30;28.30;;;4.70;99.90;;;;;;5075551;28;20056;-59
2022/01/19 09:02:42;;;;;;;61.63;28.48;;;4.70;99.90;;;;;;5073691;28;20036;-59
2022/01/19 09:05:08;;;;;;;57.33;28.10;;;4.80;99.90;;;;;;5073816;28;20045;-59
2022/01/19 09:07:34;;;;;;;59.88;27.65;;;4.80;99.90;;;;;;5073970;28;20059;-60
2022/01/19 09:10:00;;;;;;;56.22;28.50;;;4.70;99.90;;;;;;5075426;28;20083;-59
2022/01/19 09:12:26;;;;;;;58.35;28.08;;;4.70;99.90;;;;;;5073880;28;20509;-59
2022/01/19 09:14:52;;;;;;;63.42;32.33;;;4.80;99.90;;;;;;5073529;28;20079;-60
2022/01/19 09:17:18;;;;;;;56.50;27.98;;;4.70;99.90;;;;;;5080436;28;20032;-60
2022/01/19 09:19:44;;;;;;;60.33;28.38;;;4.80;99.90;;;;;;5081355;28;20174;-59
2022/01/19 09:22:11;;;;;;;55.95;28.20;;;4.70;99.90;;;;;;5081735;28;20662;-60
2022/01/19 09:24:39;;;;;;;56.50;27.98;;;4.80;99.90;;;;;;5081449;28;20062;-57
2022/01/19 09:27:05;;;;;;;61.53;28.25;;;4.80;99.90;;;;;;5081868;28;20525;-59
2022/01/19 09:29:31;;;;;;;63.38;30.33;;;4.80;99.90;;;;;;5080908;28;20147;-59
2022/01/19 09:32:00;;;;;;;63.58;31.13;;;4.80;99.90;;;;;;5063640;28;20105;-59
2022/01/19 09:34:27;;;;;;;61.72;29.80;;;4.70;99.90;;;;;;5082440;28;20080;-60
2022/01/19 09:36:52;;;;;;;57.47;28.13;;;4.80;99.90;;;;;;5081264;28;20081;-60
2022/01/19 09:39:25;;;;;;;62.42;26.75;;;4.80;99.90;;;;;;5081825;28;20537;-60
2022/01/19 09:41:52;;;;;;;53.53;26.60;;;4.80;99.90;;;;;;5081490;28;20112;-60
2022/01/19 09:44:19;;;;;;;60.08;29.48;;;4.80;99.90;;;;;;5081554;28;20052;-60
2022/01/19 09:46:46;;;;;;;57.78;28.30;;;4.80;99.90;;;;;;5082049;28;20104;-59
2022/01/19 09:49:13;;;;;;;59.10;26.58;;;4.80;99.90;;;;;;5080847;28;20049;-59
2022/01/19 09:51:42;;;;;;;62.08;29.35;;;4.80;99.90;;;;;;5081815;28;20053;-60
2022/01/19 09:54:08;;;;;;;59.20;27.90;;;4.80;99.90;;;;;;5063473;28;20086;-60
2022/01/19 09:56:34;;;;;;;67.72;32.75;;;5.00;99.90;;;;;;5081436;28;20421;-60
2022/01/19 09:59:00;;;;;;;63.50;29.45;;;4.90;99.90;;;;;;5063412;28;20052;-59
2022/01/19 10:01:26;;;;;;;60.10;30.50;;;4.90;99.90;;;;;;5080970;28;20112;-59
2022/01/19 10:03:53;;;;;;;68.47;32.13;;;4.90;99.90;;;;;;5082025;28;20063;-59
2022/01/19 10:06:23;;;;;;;55.67;28.83;;;4.90;99.90;;;;;;5081065;28;20047;-60
2022/01/19 10:08:55;;;;;;;59.90;31.60;;;4.90;99.90;;;;;;5081818;28;20075;-60
2022/01/19 10:17:04;;;;;;;64.53;32.70;;;4.90;99.90;;;;;;5081893;28;20074;-60
2022/01/19 10:19:42;;;;;;;64.10;30.63;;;4.90;99.90;;;;;;5080946;28;20051;-59
2022/01/19 10:22:13;;;;;;;64.45;30.92;;;4.90;99.90;;;;;;5081399;28;20056;-59
2022/01/19 10:24:50;;;;;;;64.97;34.67;;;4.90;99.90;;;;;;5063306;28;20050;-60
2022/01/19 10:27:32;;;;;;;63.13;34.15;;;4.90;99.90;;;;;;5082936;28;20097;-59
2022/01/19 10:30:04;;;;;;;65.80;33.78;;;4.90;99.90;;;;;;5065335;28;20067;-60
2022/01/19 10:32:59;;;;;;;67.28;34.28;;;4.90;99.90;;;;;;5081050;28;20068;-59
2022/01/19 10:35:36;;;;;;;64.72;31.63;;;4.90;99.90;;;;;;5079748;28;20063;-59
2022/01/19 10:38:15;;;;;;;62.88;33.20;;;5.00;99.90;;;;;;5081266;28;20029;-62
2022/01/19 10:40:44;;;;;;;61.78;31.83;;;4.90;99.90;;;;;;5080796;28;20086;-60
2022/01/19 10:43:39;;;;;;;63.58;32.92;;;4.90;99.90;;;;;;5081151;28;20787;-60
2022/01/19 10:46:34;;;;;;;63.53;32.08;;;5.00;99.90;;;;;;5080684;28;20052;-60
2022/01/19 10:49:07;;;;;;;64.25;33.33;;;5.00;99.90;;;;;;5062531;28;20099;-60
2022/01/19 10:51:44;;;;;;;61.38;31.73;;;5.00;99.90;;;;;;5079956;28;20506;-60
2022/01/19 10:54:22;;;;;;;63.53;32.17;;;5.00;99.90;;;;;;5080389;28;20113;-60
2022/01/19 10:56:58;;;;;;;64.70;32.00;;;5.10;99.90;;;;;;5079061;28;20048;-61
2022/01/19 10:59:29;;;;;;;67.20;35.63;;;5.20;99.90;;;;;;5079488;28;20066;-60
2022/01/19 11:01:58;;;;;;;67.30;33.70;;;5.10;99.90;;;;;;5080389;28;20082;-61
2022/01/19 11:04:25;;;;;;;60.60;30.38;;;5.10;99.90;;;;;;5080986;28;20043;-61
2022/01/19 11:06:55;;;;;;;67.70;33.72;;;5.20;99.90;;;;;;5080192;28;20052;-61
2022/01/19 11:09:25;;;;;;;60.35;34.40;;;5.20;99.90;;;;;;5078981;28;20474;-61
2022/01/19 11:11:52;;;;;;;66.47;33.03;;;5.20;99.90;;;;;;5080159;28;20041;-60
2022/01/19 11:14:19;;;;;;;70.13;33.88;;;5.30;99.90;;;;;;5080044;28;20156;-61
2022/01/19 11:16:45;;;;;;;66.22;34.30;;;5.20;99.90;;;;;;5080935;28;20036;-61
2022/01/19 11:19:12;;;;;;;68.68;34.92;;;5.20;99.90;;;;;;5079808;28;20477;-61
2022/01/19 11:22:14;;;;;;;63.42;33.22;;;5.20;99.90;;;;;;5080464;28;20437;-61
2022/01/19 11:24:56;;;;;;;69.50;34.58;;;5.30;99.90;;;;;;5078849;28;20060;-61
2022/01/19 11:27:23;;;;;;;71.80;35.17;;;5.40;99.90;;;;;;5078609;28;20417;-61
2022/01/19 11:30:08;;;;;;;67.82;34.38;;;5.30;99.90;;;;;;5081643;28;20046;-62
2022/01/19 11:32:34;;;;;;;64.35;33.63;;;5.50;99.90;;;;;;5078338;28;20052;-62
2022/01/19 11:35:02;;;;;;;65.32;34.63;;;5.40;99.90;;;;;;5081573;28;20039;-61
2022/01/19 11:37:54;;;;;;;66.97;36.60;;;5.40;99.90;;;;;;5099962;28;20051;-61
2022/01/19 11:40:20;;;;;;;64.03;33.72;;;5.60;99.90;;;;;;5077314;28;20417;-62
2022/01/19 11:42:46;;;;;;;65.65;36.25;;;5.60;99.90;;;;;;5065471;28;20040;-61
2022/01/19 11:45:35;;;;;;;63.53;33.22;;;5.60;99.90;;;;;;5081400;28;20071;-61
2022/01/19 11:48:22;;;;;;;70.70;33.60;;;5.60;99.90;;;;;;5099491;28;20098;-61
2022/01/19 11:50:51;;;;;;;70.95;35.38;;;5.50;99.90;;;;;;5081954;28;20055;-61
2022/01/19 11:53:17;;;;;;;63.22;35.00;;;5.60;99.90;;;;;;5099450;28;20147;-62
2022/01/19 11:56:06;;;;;;;73.25;35.17;;;5.60;99.90;;;;;;5100254;28;20520;-62
2022/01/19 11:58:32;;;;;;;63.88;34.60;;;5.60;99.90;;;;;;5081489;28;20055;-62
2022/01/19 12:00:58;;;;;;;58.70;31.70;;;5.60;99.90;;;;;;5099714;28;20040;-62
2022/01/19 12:03:39;;;;;;;56.40;32.20;;;5.60;99.90;;;;;;5099855;28;20048;-62
2022/01/19 12:06:04;;;;;;;61.08;30.63;;;5.80;99.90;;;;;;5098239;28;20085;-62
2022/01/19 12:08:33;;;;;;;58.30;30.80;;;5.60;99.90;;;;;;5081815;28;20068;-62
2022/01/19 12:11:15;;;;;;;57.70;29.63;;;5.60;99.90;;;;;;5099268;28;20040;-63
2022/01/19 12:16:50;;;;;;;52.42;27.02;;;5.70;99.90;;;;;;5079196;28;20052;-62
2022/01/19 12:19:06;;;;;;;42.45;23.90;;;5.60;99.90;;;;;;5078237;28;20051;-62
2022/01/19 12:21:32;;;;;;;47.45;24.23;;;5.70;99.90;;;;;;5079521;28;20041;-60
2022/01/19 12:24:19;;;;;;;42.63;22.52;;;5.70;99.90;;;;;;5078750;28;20052;-62
2022/01/19 12:27:22;;;;;;;44.47;24.23;;;5.60;99.90;;;;;;5078743;28;20150;-61
2022/01/19 12:30:01;;;;;;;45.75;21.58;;;5.70;99.90;;;;;;5076214;28;20065;-62
2022/01/19 12:32:27;;;;;;;45.47;22.73;;;5.80;99.90;;;;;;5058401;28;20052;-62
2022/01/19 12:35:17;;;;;;;45.05;22.17;;;5.80;99.90;;;;;;5058832;28;20037;-61
2022/01/19 12:38:07;;;;;;;48.15;22.92;;;5.80;99.90;;;;;;5032823;28;20075;-62
2022/01/19 12:40:35;;;;;;;46.05;24.92;;;5.80;99.90;;;;;;5058168;28;20049;-61
2022/01/19 12:43:07;;;;;;;43.50;23.38;;;5.90;99.90;;;;;;5059027;28;20041;-60
2022/01/19 12:45:35;;;;;;;;;;;5.80;99.90;;;;;;5059120;28;20048;-61
2022/01/19 12:48:04;;;;;;;47.88;22.13;;;5.90;99.90;;;;;;5058475;28;19927;-61
2022/01/19 12:50:29;;;;;;;47.90;24.65;;;6.00;99.90;;;;;;5059194;28;20041;-61
2022/01/19 12:53:05;;;;;;;49.78;22.65;;;6.00;99.90;;;;;;5059510;28;20456;-61
2022/01/19 12:55:35;;;;;;;40.85;23.23;;;6.10;99.90;;;;;;5079013;28;20044;-61
2022/01/19 12:58:13;;;;;;;47.22;23.50;;;6.10;99.90;;;;;;5078338;28;20044;-61
2022/01/19 13:00:40;;;;;;;46.60;23.30;;;6.10;99.90;;;;;;5078576;28;20059;-61
2022/01/19 13:03:16;;;;;;;43.28;22.15;;;6.10;99.90;;;;;;5043667;28;20056;-59
2022/01/19 13:05:58;;;;;;;43.67;20.83;;;6.10;99.90;;;;;;5060379;28;20040;-61
2022/01/19 13:08:27;;;;;;;;;;;6.00;99.90;;;;;;5060732;28;20048;-61
2022/01/19 13:10:55;;;;;;;37.58;19.90;;;6.00;99.90;;;;;;5059757;28;19921;-61
2022/01/19 13:16:07;;;;;;;45.00;18.92;;;6.00;99.90;;;;;;5058313;28;20075;-61
2022/01/19 13:18:36;;;;;;;38.95;19.48;;;6.00;99.90;;;;;;5057999;28;20037;-62
2022/01/19 13:21:15;;;;;;;41.60;19.63;;;6.00;99.90;;;;;;5058721;28;20041;-61
2022/01/19 13:24:11;;;;;;;41.33;18.98;;;6.00;99.90;;;;;;5058321;28;20060;-61
2022/01/19 13:26:57;;;;;;;36.45;19.67;;;5.90;99.90;;;;;;5058007;28;20057;-60
2022/01/19 13:29:39;;;;;;;36.80;18.33;;;5.90;99.90;;;;;;5052597;28;20040;-62
2022/01/19 13:32:17;;;;;;;36.15;18.73;;;6.00;99.90;;;;;;5074997;28;20036;-61
2022/01/19 13:34:58;;;;;;;39.72;16.88;;;5.90;99.90;;;;;;5077147;28;20043;-61
2022/01/19 13:37:37;;;;;;;39.00;17.90;;;6.00;99.90;;;;;;5075616;28;20047;-62
2022/01/19 13:40:09;;;;;;;36.33;16.63;;;5.90;99.90;;;;;;5075336;28;20138;-61
2022/01/19 13:42:43;;;;;;;40.00;17.95;;;5.90;99.90;;;;;;5077370;28;20461;-61
2022/01/19 13:45:24;;;;;;;40.50;18.50;;;5.80;99.90;;;;;;5064868;28;20037;-61
2022/01/19 13:47:56;;;;;;;38.92;17.92;;;5.80;99.90;;;;;;5076574;28;20047;-61
2022/01/19 13:50:23;;;;;;;37.35;19.05;;;5.70;99.90;;;;;;5067583;28;20044;-60
2022/01/19 13:52:49;;;;;;;37.15;18.83;;;5.70;99.90;;;;;;5077731;28;20051;-59
2022/01/19 13:55:17;;;;;;;42.75;18.60;;;5.60;99.90;;;;;;5043832;28;20044;-59
2022/01/19 13:57:43;;;;;;;47.55;20.75;;;5.70;99.90;;;;;;5059171;28;20074;-60
2022/01/19 14:00:16;;;;;;;37.28;18.00;;;5.60;99.90;;;;;;5078328;28;20075;-60
2022/01/19 14:02:56;;;;;;;38.95;18.30;;;5.60;99.90;;;;;;5042728;28;20502;-60
2022/01/19 14:05:44;;;;;;;41.72;18.13;;;5.50;99.90;;;;;;5081701;28;20040;-61
2022/01/19 14:08:10;;;;;;;41.85;18.15;;;5.50;99.90;;;;;;5082185;28;20446;-60
2022/01/19 14:10:47;;;;;;;41.58;20.35;;;5.50;99.90;;;;;;5080808;28;20093;-60
2022/01/19 14:13:27;;;;;;;41.72;19.00;;;5.50;99.90;;;;;;5081296;28;20514;-60
2022/01/19 14:16:21;;;;;;;42.88;18.88;;;5.40;99.90;;;;;;5063346;28;20809;-61
2022/01/19 14:19:11;;;;;;;40.83;17.48;;;5.40;99.90;;;;;;5081059;28;20072;-60
2022/01/19 14:22:08;;;;;;;43.22;20.65;;;5.50;99.90;;;;;;5081472;28;20047;-60
2022/01/19 14:24:46;;;;;;;40.28;17.23;;;5.40;99.90;;;;;;5081302;28;20048;-60